sensor_id;sensor_type;location;lat;lon;timestamp;pressure;altitude;pressure_sealevel;temperature;humidity
40992;BME280;29633;49.168;9.848;2023-01-10T00:01:29;96412.81;;;9.32;70.61
40992;BME280;29633;49.168;9.848;2023-01-10T00:03:55;96410.22;;;9.32;70.57
40992;BME280;29633;49.168;9.848;2023-01-10T00:06:21;96411.88;;;9.33;70.71
40992;BME280;29633;49.168;9.848;2023-01-10T00:08:46;96419.47;;;9.34;70.61
40992;BME280;29633;49.168;9.848;2023-01-10T00:11:12;96421.13;;;9.35;70.42
40992;BME280;29633;49.168;9.848;2023-01-10T00:13:57;96414.19;;;9.36;70.39
40992;BME280;29633;49.168;9.848;2023-01-10T00:16:22;96418.66;;;9.34;70.45
40992;BME280;29633;49.168;9.848;2023-01-10T00:18:48;96417.16;;;9.31;70.71
40992;BME280;29633;49.168;9.848;2023-01-10T00:21:14;96425.03;;;9.30;70.57
40992;BME280;29633;49.168;9.848;2023-01-10T00:23:41;96434.19;;;9.34;70.49
40992;BME280;29633;49.168;9.848;2023-01-10T00:26:08;96429.00;;;9.34;70.62
40992;BME280;29633;49.168;9.848;2023-01-10T00:28:33;96428.06;;;9.35;70.46
40992;BME280;29633;49.168;9.848;2023-01-10T00:30:59;96428.75;;;9.37;70.37
40992;BME280;29633;49.168;9.848;2023-01-10T00:33:27;96438.88;;;9.40;70.20
40992;BME280;29633;49.168;9.848;2023-01-10T00:35:52;96445.56;;;9.43;70.34
40992;BME280;29633;49.168;9.848;2023-01-10T00:38:18;96451.41;;;9.45;70.44
40992;BME280;29633;49.168;9.848;2023-01-10T00:40:44;96454.56;;;9.48;70.18
40992;BME280;29633;49.168;9.848;2023-01-10T00:43:10;96460.56;;;9.49;70.49
40992;BME280;29633;49.168;9.848;2023-01-10T00:45:54;96471.28;;;9.44;70.46
40992;BME280;29633;49.168;9.848;2023-01-10T00:48:22;96472.25;;;9.43;70.55
40992;BME280;29633;49.168;9.848;2023-01-10T00:50:48;96471.06;;;9.47;70.54
40992;BME280;29633;49.168;9.848;2023-01-10T00:53:14;96480.34;;;9.50;70.24
40992;BME280;29633;49.168;9.848;2023-01-10T00:55:40;96477.06;;;9.48;70.44
40992;BME280;29633;49.168;9.848;2023-01-10T00:58:05;96479.06;;;9.44;70.50
40992;BME280;29633;49.168;9.848;2023-01-10T01:00:33;96483.91;;;9.37;70.47
40992;BME280;29633;49.168;9.848;2023-01-10T01:02:58;96497.09;;;9.34;70.65
40992;BME280;29633;49.168;9.848;2023-01-10T01:05:24;96494.63;;;9.33;70.60
40992;BME280;29633;49.168;9.848;2023-01-10T01:07:50;96499.00;;;9.32;70.64
40992;BME280;29633;49.168;9.848;2023-01-10T01:10:16;96501.31;;;9.35;70.55
40992;BME280;29633;49.168;9.848;2023-01-10T01:12:56;96504.03;;;9.34;70.70
40992;BME280;29633;49.168;9.848;2023-01-10T01:15:22;96506.84;;;9.31;70.61
40992;BME280;29633;49.168;9.848;2023-01-10T01:17:48;96515.34;;;9.33;70.61
40992;BME280;29633;49.168;9.848;2023-01-10T01:20:16;96518.84;;;9.32;70.68
40992;BME280;29633;49.168;9.848;2023-01-10T01:22:42;96525.09;;;9.29;70.48
40992;BME280;29633;49.168;9.848;2023-01-10T01:25:08;96536.50;;;9.27;70.68
40992;BME280;29633;49.168;9.848;2023-01-10T01:27:34;96536.50;;;9.27;70.86
40992;BME280;29633;49.168;9.848;2023-01-10T01:30:00;96542.50;;;9.27;70.45
40992;BME280;29633;49.168;9.848;2023-01-10T01:32:26;96554.50;;;9.28;70.76
40992;BME280;29633;49.168;9.848;2023-01-10T01:34:52;96555.31;;;9.29;70.76
40992;BME280;29633;49.168;9.848;2023-01-10T01:37:18;96563.75;;;9.31;70.61
40992;BME280;29633;49.168;9.848;2023-01-10T01:39:47;96562.00;;;9.31;70.60
40992;BME280;29633;49.168;9.848;2023-01-10T01:42:39;96572.94;;;9.35;70.46
40992;BME280;29633;49.168;9.848;2023-01-10T01:53:31;96611.50;;;9.27;70.69
40992;BME280;29633;49.168;9.848;2023-01-10T01:56:02;96617.75;;;9.24;70.81
40992;BME280;29633;49.168;9.848;2023-01-10T01:58:50;96621.16;;;9.25;70.85
40992;BME280;29633;49.168;9.848;2023-01-10T02:01:17;96622.91;;;9.24;70.76
40992;BME280;29633;49.168;9.848;2023-01-10T02:03:45;96628.91;;;9.25;70.72
40992;BME280;29633;49.168;9.848;2023-01-10T02:06:12;96631.16;;;9.29;70.67
40992;BME280;29633;49.168;9.848;2023-01-10T02:08:42;96631.75;;;9.33;70.56
40992;BME280;29633;49.168;9.848;2023-01-10T02:11:09;96629.16;;;9.33;70.50
40992;BME280;29633;49.168;9.848;2023-01-10T02:13:40;96646.44;;;9.32;70.59
40992;BME280;29633;49.168;9.848;2023-01-10T02:16:07;96650.19;;;9.28;70.73
40992;BME280;29633;49.168;9.848;2023-01-10T02:18:34;96662.53;;;9.25;70.84
40992;BME280;29633;49.168;9.848;2023-01-10T02:26:23;96661.22;;;9.19;70.75
40992;BME280;29633;49.168;9.848;2023-01-10T02:34:49;96665.72;;;9.17;71.04
40992;BME280;29633;49.168;9.848;2023-01-10T02:43:09;96672.75;;;9.04;71.05
40992;BME280;29633;49.168;9.848;2023-01-10T02:45:43;96672.28;;;8.99;71.27
40992;BME280;29633;49.168;9.848;2023-01-10T02:48:10;96676.63;;;8.99;71.26
40992;BME280;29633;49.168;9.848;2023-01-10T02:53:30;96681.69;;;9.00;71.15
40992;BME280;29633;49.168;9.848;2023-01-10T02:56:20;96691.91;;;9.02;71.06
40992;BME280;29633;49.168;9.848;2023-01-10T03:06:52;96717.91;;;9.11;70.93
40992;BME280;29633;49.168;9.848;2023-01-10T03:12:00;96722.59;;;9.17;70.80
40992;BME280;29633;49.168;9.848;2023-01-10T03:14:28;96725.06;;;9.19;70.81
40992;BME280;29633;49.168;9.848;2023-01-10T03:16:58;96729.44;;;9.18;70.74
40992;BME280;29633;49.168;9.848;2023-01-10T03:19:28;96724.47;;;9.15;70.87
40992;BME280;29633;49.168;9.848;2023-01-10T03:21:56;96725.28;;;9.16;70.96
40992;BME280;29633;49.168;9.848;2023-01-10T03:24:37;96735.28;;;9.09;70.91
40992;BME280;29633;49.168;9.848;2023-01-10T03:27:25;96749.50;;;9.04;70.94
40992;BME280;29633;49.168;9.848;2023-01-10T03:30:05;96761.59;;;9.03;71.14
40992;BME280;29633;49.168;9.848;2023-01-10T03:32:36;96759.72;;;9.05;71.08
40992;BME280;29633;49.168;9.848;2023-01-10T03:35:02;96767.38;;;9.07;71.12
40992;BME280;29633;49.168;9.848;2023-01-10T03:40:19;96781.59;;;9.12;70.93
40992;BME280;29633;49.168;9.848;2023-01-10T03:45:42;96786.41;;;9.06;70.99
40992;BME280;29633;49.168;9.848;2023-01-10T03:48:09;96790.50;;;9.08;71.10
40992;BME280;29633;49.168;9.848;2023-01-10T03:50:36;96793.09;;;9.08;71.12
40992;BME280;29633;49.168;9.848;2023-01-10T03:53:02;96802.75;;;9.06;71.07
40992;BME280;29633;49.168;9.848;2023-01-10T03:55:29;96800.25;;;9.05;71.05
40992;BME280;29633;49.168;9.848;2023-01-10T03:57:55;96812.59;;;9.01;71.07
40992;BME280;29633;49.168;9.848;2023-01-10T04:00:21;96813.41;;;9.02;71.23
40992;BME280;29633;49.168;9.848;2023-01-10T04:02:48;96823.16;;;8.98;71.17
40992;BME280;29633;49.168;9.848;2023-01-10T04:05:14;96822.47;;;8.96;71.20
40992;BME280;29633;49.168;9.848;2023-01-10T04:07:40;96831.97;;;8.96;71.28
40992;BME280;29633;49.168;9.848;2023-01-10T04:10:05;96837.84;;;8.98;71.14
40992;BME280;29633;49.168;9.848;2023-01-10T04:12:31;96850.75;;;8.98;71.25
40992;BME280;29633;49.168;9.848;2023-01-10T04:14:57;96855.00;;;8.99;71.00
40992;BME280;29633;49.168;9.848;2023-01-10T04:17:23;96851.72;;;8.97;71.04
40992;BME280;29633;49.168;9.848;2023-01-10T04:19:48;96857.69;;;8.97;70.95
40992;BME280;29633;49.168;9.848;2023-01-10T04:22:14;96862.88;;;8.97;71.14
40992;BME280;29633;49.168;9.848;2023-01-10T04:24:40;96864.66;;;8.97;71.03
40992;BME280;29633;49.168;9.848;2023-01-10T04:27:06;96874.63;;;9.01;70.95
40992;BME280;29633;49.168;9.848;2023-01-10T04:29:31;96878.06;;;9.02;70.99
40992;BME280;29633;49.168;9.848;2023-01-10T04:31:57;96885.94;;;9.00;70.78
40992;BME280;29633;49.168;9.848;2023-01-10T04:34:23;96887.56;;;9.01;70.88
40992;BME280;29633;49.168;9.848;2023-01-10T04:36:48;96899.56;;;9.02;70.83
40992;BME280;29633;49.168;9.848;2023-01-10T04:39:14;96895.69;;;8.97;71.11
40992;BME280;29633;49.168;9.848;2023-01-10T04:41:40;96897.53;;;8.95;71.13
40992;BME280;29633;49.168;9.848;2023-01-10T04:44:06;96900.84;;;8.97;70.97
40992;BME280;29633;49.168;9.848;2023-01-10T04:46:32;96905.88;;;8.98;70.87
40992;BME280;29633;49.168;9.848;2023-01-10T04:48:57;96910.34;;;8.96;71.10
40992;BME280;29633;49.168;9.848;2023-01-10T04:51:24;96914.09;;;8.92;70.93
40992;BME280;29633;49.168;9.848;2023-01-10T04:53:50;96913.03;;;8.95;71.11
40992;BME280;29633;49.168;9.848;2023-01-10T04:56:18;96923.50;;;8.93;70.92
40992;BME280;29633;49.168;9.848;2023-01-10T04:58:44;96926.28;;;8.90;70.97
40992;BME280;29633;49.168;9.848;2023-01-10T05:01:14;96927.25;;;8.89;71.19
40992;BME280;29633;49.168;9.848;2023-01-10T05:03:40;96934.03;;;8.90;71.01
40992;BME280;29633;49.168;9.848;2023-01-10T05:06:06;96938.91;;;8.95;71.08
40992;BME280;29633;49.168;9.848;2023-01-10T05:08:32;96949.13;;;8.96;70.97
40992;BME280;29633;49.168;9.848;2023-01-10T05:10:57;96966.41;;;8.96;70.88
40992;BME280;29633;49.168;9.848;2023-01-10T05:13:23;96967.09;;;8.98;70.76
40992;BME280;29633;49.168;9.848;2023-01-10T05:15:53;96973.25;;;8.97;70.87
40992;BME280;29633;49.168;9.848;2023-01-10T05:18:20;96968.38;;;8.92;71.00
40992;BME280;29633;49.168;9.848;2023-01-10T05:20:46;96974.09;;;8.84;71.00
40992;BME280;29633;49.168;9.848;2023-01-10T05:23:12;96976.16;;;8.79;70.97
40992;BME280;29633;49.168;9.848;2023-01-10T05:25:37;96983.44;;;8.74;71.17
40992;BME280;29633;49.168;9.848;2023-01-10T05:28:03;96991.59;;;8.68;71.04
40992;BME280;29633;49.168;9.848;2023-01-10T05:30:29;96987.59;;;8.64;71.40
40992;BME280;29633;49.168;9.848;2023-01-10T05:32:54;96990.56;;;8.58;71.31
40992;BME280;29633;49.168;9.848;2023-01-10T05:35:20;96998.75;;;8.52;71.41
40992;BME280;29633;49.168;9.848;2023-01-10T05:37:45;96996.38;;;8.49;71.55
40992;BME280;29633;49.168;9.848;2023-01-10T05:40:11;96989.66;;;8.47;71.48
40992;BME280;29633;49.168;9.848;2023-01-10T05:42:37;97005.50;;;8.42;71.37
40992;BME280;29633;49.168;9.848;2023-01-10T05:45:03;97010.97;;;8.37;71.55
40992;BME280;29633;49.168;9.848;2023-01-10T05:47:29;97010.03;;;8.38;71.52
40992;BME280;29633;49.168;9.848;2023-01-10T05:49:55;97013.94;;;8.44;71.53
40992;BME280;29633;49.168;9.848;2023-01-10T05:52:23;97019.84;;;8.46;71.39
40992;BME280;29633;49.168;9.848;2023-01-10T05:54:48;97021.28;;;8.50;71.20
40992;BME280;29633;49.168;9.848;2023-01-10T05:57:14;97024.59;;;8.52;71.28
40992;BME280;29633;49.168;9.848;2023-01-10T05:59:40;97029.03;;;8.50;70.94
40992;BME280;29633;49.168;9.848;2023-01-10T06:02:05;97034.81;;;8.54;71.19
40992;BME280;29633;49.168;9.848;2023-01-10T06:04:31;97038.22;;;8.54;71.09
40992;BME280;29633;49.168;9.848;2023-01-10T06:06:56;97038.97;;;8.56;71.17
40992;BME280;29633;49.168;9.848;2023-01-10T06:09:22;97046.50;;;8.59;71.02
40992;BME280;29633;49.168;9.848;2023-01-10T06:11:48;97050.00;;;8.58;71.19
40992;BME280;29633;49.168;9.848;2023-01-10T06:14:13;97056.63;;;8.62;70.91
40992;BME280;29633;49.168;9.848;2023-01-10T06:16:44;97070.28;;;8.64;70.95
40992;BME280;29633;49.168;9.848;2023-01-10T06:19:10;97072.03;;;8.64;70.89
40992;BME280;29633;49.168;9.848;2023-01-10T06:21:36;97071.09;;;8.65;71.02
40992;BME280;29633;49.168;9.848;2023-01-10T06:24:01;97078.75;;;8.66;70.95
40992;BME280;29633;49.168;9.848;2023-01-10T06:26:27;97074.28;;;8.68;70.94
40992;BME280;29633;49.168;9.848;2023-01-10T06:28:52;97078.13;;;8.63;70.95
40992;BME280;29633;49.168;9.848;2023-01-10T06:31:18;97080.81;;;8.61;71.07
40992;BME280;29633;49.168;9.848;2023-01-10T06:33:44;97085.56;;;8.55;71.26
40992;BME280;29633;49.168;9.848;2023-01-10T06:36:10;97097.78;;;8.53;71.24
40992;BME280;29633;49.168;9.848;2023-01-10T06:38:35;97093.53;;;8.52;71.22
40992;BME280;29633;49.168;9.848;2023-01-10T06:41:01;97099.59;;;8.51;71.26
40992;BME280;29633;49.168;9.848;2023-01-10T06:43:44;97107.78;;;8.45;71.46
40992;BME280;29633;49.168;9.848;2023-01-10T06:46:14;97110.28;;;8.46;71.22
40992;BME280;29633;49.168;9.848;2023-01-10T06:48:41;97123.91;;;8.48;71.26
40992;BME280;29633;49.168;9.848;2023-01-10T06:51:11;97122.97;;;8.49;71.27
40992;BME280;29633;49.168;9.848;2023-01-10T06:53:37;97128.03;;;8.51;71.29
40992;BME280;29633;49.168;9.848;2023-01-10T06:56:03;97131.44;;;8.51;71.42
40992;BME280;29633;49.168;9.848;2023-01-10T06:58:31;97135.78;;;8.51;71.21
40992;BME280;29633;49.168;9.848;2023-01-10T07:00:57;97136.81;;;8.48;71.22
40992;BME280;29633;49.168;9.848;2023-01-10T07:03:22;97140.66;;;8.43;71.42
40992;BME280;29633;49.168;9.848;2023-01-10T07:05:48;97159.53;;;8.43;71.47
40992;BME280;29633;49.168;9.848;2023-01-10T07:08:14;97152.81;;;8.40;71.29
40992;BME280;29633;49.168;9.848;2023-01-10T07:10:41;97145.69;;;8.44;71.38
40992;BME280;29633;49.168;9.848;2023-01-10T07:13:07;97150.03;;;8.44;71.45
40992;BME280;29633;49.168;9.848;2023-01-10T07:15:33;97155.94;;;8.46;71.23
40992;BME280;29633;49.168;9.848;2023-01-10T07:17:59;97160.91;;;8.49;71.37
40992;BME280;29633;49.168;9.848;2023-01-10T07:20:25;97165.44;;;8.45;71.28
40992;BME280;29633;49.168;9.848;2023-01-10T07:22:55;97162.13;;;8.43;71.35
40992;BME280;29633;49.168;9.848;2023-01-10T07:25:22;97169.06;;;8.43;71.34
40992;BME280;29633;49.168;9.848;2023-01-10T07:27:48;97173.41;;;8.42;71.32
40992;BME280;29633;49.168;9.848;2023-01-10T07:30:13;97162.44;;;8.38;71.32
40992;BME280;29633;49.168;9.848;2023-01-10T07:32:39;97172.84;;;8.37;71.66
40992;BME280;29633;49.168;9.848;2023-01-10T07:35:05;97176.34;;;8.36;71.49
40992;BME280;29633;49.168;9.848;2023-01-10T07:37:31;97186.81;;;8.34;71.55
40992;BME280;29633;49.168;9.848;2023-01-10T07:39:56;97190.09;;;8.36;71.43
40992;BME280;29633;49.168;9.848;2023-01-10T07:42:22;97202.19;;;8.36;71.29
40992;BME280;29633;49.168;9.848;2023-01-10T07:44:48;97212.53;;;8.36;71.38
40992;BME280;29633;49.168;9.848;2023-01-10T07:47:13;97229.59;;;8.38;71.34
40992;BME280;29633;49.168;9.848;2023-01-10T07:49:39;97242.41;;;8.40;71.30
40992;BME280;29633;49.168;9.848;2023-01-10T07:52:05;97250.34;;;8.37;71.36
40992;BME280;29633;49.168;9.848;2023-01-10T07:54:34;97248.88;;;8.33;71.28
40992;BME280;29633;49.168;9.848;2023-01-10T07:57:00;97252.38;;;8.32;71.33
40992;BME280;29633;49.168;9.848;2023-01-10T07:59:25;97248.06;;;8.32;71.39
40992;BME280;29633;49.168;9.848;2023-01-10T08:01:51;97241.78;;;8.36;71.40
40992;BME280;29633;49.168;9.848;2023-01-10T08:04:19;97232.81;;;8.42;71.36
40992;BME280;29633;49.168;9.848;2023-01-10T08:06:44;97243.66;;;8.47;71.20
40992;BME280;29633;49.168;9.848;2023-01-10T08:09:10;97245.13;;;8.51;71.43
40992;BME280;29633;49.168;9.848;2023-01-10T08:11:36;97247.84;;;8.62;71.26
40992;BME280;29633;49.168;9.848;2023-01-10T08:14:01;97262.38;;;8.77;71.01
40992;BME280;29633;49.168;9.848;2023-01-10T08:16:27;97276.69;;;9.21;70.42
40992;BME280;29633;49.168;9.848;2023-01-10T08:18:52;97275.78;;;9.47;70.02
40992;BME280;29633;49.168;9.848;2023-01-10T08:21:18;97274.84;;;9.61;69.83
40992;BME280;29633;49.168;9.848;2023-01-10T08:23:44;97277.50;;;9.59;69.84
40992;BME280;29633;49.168;9.848;2023-01-10T08:26:09;97285.81;;;9.52;70.22
40992;BME280;29633;49.168;9.848;2023-01-10T08:28:36;97285.59;;;9.42;70.38
40992;BME280;29633;49.168;9.848;2023-01-10T08:31:06;97298.97;;;9.36;70.49
40992;BME280;29633;49.168;9.848;2023-01-10T08:33:31;97308.28;;;9.26;70.63
40992;BME280;29633;49.168;9.848;2023-01-10T08:35:57;97306.81;;;9.22;70.77
40992;BME280;29633;49.168;9.848;2023-01-10T08:38:23;97297.47;;;9.19;70.82
40992;BME280;29633;49.168;9.848;2023-01-10T08:40:48;97302.78;;;9.18;70.81
40992;BME280;29633;49.168;9.848;2023-01-10T08:43:14;97307.31;;;9.14;71.07
40992;BME280;29633;49.168;9.848;2023-01-10T08:45:40;97311.97;;;9.09;70.95
40992;BME280;29633;49.168;9.848;2023-01-10T08:48:06;97321.78;;;9.04;71.00
40992;BME280;29633;49.168;9.848;2023-01-10T08:50:33;97323.44;;;9.05;70.96
40992;BME280;29633;49.168;9.848;2023-01-10T08:52:59;97311.34;;;9.06;71.02
40992;BME280;29633;49.168;9.848;2023-01-10T08:55:26;97307.00;;;9.06;71.09
40992;BME280;29633;49.168;9.848;2023-01-10T08:57:53;97300.16;;;9.05;70.93
40992;BME280;29633;49.168;9.848;2023-01-10T09:00:19;97312.88;;;9.08;70.93
40992;BME280;29633;49.168;9.848;2023-01-10T09:02:44;97314.53;;;9.09;71.11
40992;BME280;29633;49.168;9.848;2023-01-10T09:05:10;97315.16;;;9.13;70.77
40992;BME280;29633;49.168;9.848;2023-01-10T09:07:36;97329.78;;;9.14;70.87
40992;BME280;29633;49.168;9.848;2023-01-10T09:10:02;97334.03;;;9.15;70.90
40992;BME280;29633;49.168;9.848;2023-01-10T09:12:28;97337.31;;;9.17;70.92
40992;BME280;29633;49.168;9.848;2023-01-10T09:15:12;97345.78;;;9.19;70.91
40992;BME280;29633;49.168;9.848;2023-01-10T09:17:38;97337.13;;;9.20;70.83
40992;BME280;29633;49.168;9.848;2023-01-10T09:20:04;97348.00;;;9.25;70.76
40992;BME280;29633;49.168;9.848;2023-01-10T09:22:38;97347.78;;;9.28;70.75
40992;BME280;29633;49.168;9.848;2023-01-10T09:25:04;97359.06;;;9.27;70.59
40992;BME280;29633;49.168;9.848;2023-01-10T09:27:30;97351.63;;;9.22;70.76
40992;BME280;29633;49.168;9.848;2023-01-10T09:29:56;97366.50;;;9.19;71.01
40992;BME280;29633;49.168;9.848;2023-01-10T09:32:22;97373.53;;;9.17;70.82
40992;BME280;29633;49.168;9.848;2023-01-10T09:34:47;97378.06;;;9.13;70.99
40992;BME280;29633;49.168;9.848;2023-01-10T09:37:13;97390.28;;;9.11;70.94
40992;BME280;29633;49.168;9.848;2023-01-10T09:39:38;97388.72;;;9.09;70.89
40992;BME280;29633;49.168;9.848;2023-01-10T09:52:45;97410.56;;;9.17;70.61
40992;BME280;29633;49.168;9.848;2023-01-10T09:57:42;97406.03;;;9.21;70.87
40992;BME280;29633;49.168;9.848;2023-01-10T10:00:08;97405.28;;;9.19;70.79
40992;BME280;29633;49.168;9.848;2023-01-10T10:02:40;97404.28;;;9.21;70.84
40992;BME280;29633;49.168;9.848;2023-01-10T10:05:21;97403.25;;;9.24;70.84
40992;BME280;29633;49.168;9.848;2023-01-10T10:08:00;97403.16;;;9.25;70.75
40992;BME280;29633;49.168;9.848;2023-01-10T10:10:38;97408.97;;;9.29;70.85
40992;BME280;29633;49.168;9.848;2023-01-10T10:13:17;97408.75;;;9.32;70.72
40992;BME280;29633;49.168;9.848;2023-01-10T10:15:48;97410.00;;;9.39;70.69
40992;BME280;29633;49.168;9.848;2023-01-10T10:18:28;97410.00;;;9.39;70.73
40992;BME280;29633;49.168;9.848;2023-01-10T10:26:33;97405.03;;;9.36;70.99
40992;BME280;29633;49.168;9.848;2023-01-10T10:32:23;97416.84;;;9.40;70.46
40992;BME280;29633;49.168;9.848;2023-01-10T10:34:56;97414.34;;;9.38;70.76
40992;BME280;29633;49.168;9.848;2023-01-10T10:37:27;97410.00;;;9.39;70.67
40992;BME280;29633;49.168;9.848;2023-01-10T10:40:00;97418.28;;;9.44;70.63
40992;BME280;29633;49.168;9.848;2023-01-10T10:42:37;97416.84;;;9.40;70.55
40992;BME280;29633;49.168;9.848;2023-01-10T10:47:39;97412.06;;;9.34;70.68
40992;BME280;29633;49.168;9.848;2023-01-10T10:52:39;97401.19;;;9.29;70.65
40992;BME280;29633;49.168;9.848;2023-01-10T10:55:11;97396.94;;;9.28;70.87
40992;BME280;29633;49.168;9.848;2023-01-10T10:57:37;97390.72;;;9.30;70.83
40992;BME280;29633;49.168;9.848;2023-01-10T11:00:04;97393.22;;;9.32;70.52
40992;BME280;29633;49.168;9.848;2023-01-10T11:02:42;97401.09;;;9.30;70.87
40992;BME280;29633;49.168;9.848;2023-01-10T11:05:16;97398.41;;;9.32;70.60
40992;BME280;29633;49.168;9.848;2023-01-10T11:07:44;97410.50;;;9.31;70.80
40992;BME280;29633;49.168;9.848;2023-01-10T11:10:18;97414.84;;;9.31;70.66
40992;BME280;29633;49.168;9.848;2023-01-10T11:12:46;97414.78;;;9.32;70.50
40992;BME280;29633;49.168;9.848;2023-01-10T11:15:38;97420.78;;;9.33;70.71
40992;BME280;29633;49.168;9.848;2023-01-10T11:18:13;97421.50;;;9.35;70.69
40992;BME280;29633;49.168;9.848;2023-01-10T11:20:46;97422.94;;;9.39;70.60
40992;BME280;29633;49.168;9.848;2023-01-10T11:23:21;97426.06;;;9.44;70.36
40992;BME280;29633;49.168;9.848;2023-01-10T11:25:46;97419.88;;;9.47;70.50
40992;BME280;29633;49.168;9.848;2023-01-10T11:28:13;97425.66;;;9.50;70.37
40992;BME280;29633;49.168;9.848;2023-01-10T11:30:41;97421.97;;;9.54;70.45
40992;BME280;29633;49.168;9.848;2023-01-10T11:33:19;97425.06;;;9.59;70.45
40992;BME280;29633;49.168;9.848;2023-01-10T11:36:08;97421.97;;;9.54;70.03
40992;BME280;29633;49.168;9.848;2023-01-10T11:38:37;97425.47;;;9.53;70.33
40992;BME280;29633;49.168;9.848;2023-01-10T11:41:24;97422.97;;;9.52;70.23
40992;BME280;29633;49.168;9.848;2023-01-10T11:43:51;97423.91;;;9.51;70.43
40992;BME280;29633;49.168;9.848;2023-01-10T11:46:23;97421.41;;;9.49;70.39
40992;BME280;29633;49.168;9.848;2023-01-10T11:49:07;97416.03;;;9.52;70.28
40992;BME280;29633;49.168;9.848;2023-01-10T11:51:39;97428.25;;;9.50;70.44
40992;BME280;29633;49.168;9.848;2023-01-10T11:54:16;97430.72;;;9.52;70.48
40992;BME280;29633;49.168;9.848;2023-01-10T11:59:24;97424.75;;;9.51;70.69
40992;BME280;29633;49.168;9.848;2023-01-10T12:01:59;97426.06;;;9.44;70.49
40992;BME280;29633;49.168;9.848;2023-01-10T12:04:28;97423.88;;;9.38;70.53
40992;BME280;29633;49.168;9.848;2023-01-10T12:07:00;97417.22;;;9.34;70.77
40992;BME280;29633;49.168;9.848;2023-01-10T12:10:17;97409.41;;;9.48;70.89
40992;BME280;29633;49.168;9.848;2023-01-10T12:12:21;97416.44;;;9.59;70.85
40992;BME280;29633;49.168;9.848;2023-01-10T12:14:47;97411.91;;;9.62;70.86
40992;BME280;29633;49.168;9.848;2023-01-10T12:17:34;97418.66;;;9.65;70.65
40992;BME280;29633;49.168;9.848;2023-01-10T12:20:02;97414.31;;;9.65;70.85
40992;BME280;29633;49.168;9.848;2023-01-10T12:22:30;97420.19;;;9.67;70.83
40992;BME280;29633;49.168;9.848;2023-01-10T12:24:58;97411.91;;;9.62;70.67
40992;BME280;29633;49.168;9.848;2023-01-10T12:27:25;97402.72;;;9.58;70.70
40992;BME280;29633;49.168;9.848;2023-01-10T12:30:06;97404.47;;;9.58;70.84
40992;BME280;29633;49.168;9.848;2023-01-10T12:32:40;97403.50;;;9.59;70.62
40992;BME280;29633;49.168;9.848;2023-01-10T12:35:41;97401.38;;;9.65;70.85
40992;BME280;29633;49.168;9.848;2023-01-10T12:41:09;97390.72;;;9.82;70.94
40992;BME280;29633;49.168;9.848;2023-01-10T12:43:58;97387.38;;;9.93;70.64
40992;BME280;29633;49.168;9.848;2023-01-10T12:46:44;97378.56;;;10.08;70.66
40992;BME280;29633;49.168;9.848;2023-01-10T12:49:24;97378.03;;;10.28;70.65
40992;BME280;29633;49.168;9.848;2023-01-10T12:51:52;97372.03;;;10.41;70.68
40992;BME280;29633;49.168;9.848;2023-01-10T12:54:21;97372.94;;;10.52;70.49
40992;BME280;29633;49.168;9.848;2023-01-10T12:56:47;97361.56;;;10.66;70.90
40992;BME280;29633;49.168;9.848;2023-01-10T12:59:23;97368.59;;;10.76;70.80
40992;BME280;29633;49.168;9.848;2023-01-10T13:01:56;97370.50;;;10.85;70.71
40992;BME280;29633;49.168;9.848;2023-01-10T13:04:25;97376.97;;;10.80;70.91
40992;BME280;29633;49.168;9.848;2023-01-10T13:06:51;97373.47;;;10.68;70.85
40992;BME280;29633;49.168;9.848;2023-01-10T13:09:20;97368.75;;;10.62;70.89
40992;BME280;29633;49.168;9.848;2023-01-10T13:12:00;97369.06;;;10.58;71.02
40992;BME280;29633;49.168;9.848;2023-01-10T13:17:36;97369.56;;;10.63;70.90
40992;BME280;29633;49.168;9.848;2023-01-10T13:22:50;97375.25;;;10.68;70.64
40992;BME280;29633;49.168;9.848;2023-01-10T13:25:30;97359.81;;;10.66;70.93
40992;BME280;29633;49.168;9.848;2023-01-10T13:28:15;97365.41;;;10.60;70.91
40992;BME280;29633;49.168;9.848;2023-01-10T13:30:42;97360.59;;;10.56;70.83
40992;BME280;29633;49.168;9.848;2023-01-10T13:33:22;97368.38;;;10.43;70.71
40992;BME280;29633;49.168;9.848;2023-01-10T13:35:48;97363.41;;;10.40;70.82
40992;BME280;29633;49.168;9.848;2023-01-10T13:38:19;97362.59;;;10.40;70.62
40992;BME280;29633;49.168;9.848;2023-01-10T13:41:06;97363.81;;;10.47;70.83
40992;BME280;29633;49.168;9.848;2023-01-10T13:51:15;97368.31;;;10.68;71.06
40992;BME280;29633;49.168;9.848;2023-01-10T13:56:45;97374.94;;;10.72;70.79
40992;BME280;29633;49.168;9.848;2023-01-10T14:02:21;97376.59;;;10.73;70.52
40992;BME280;29633;49.168;9.848;2023-01-10T14:07:47;97386.44;;;10.68;70.60
40992;BME280;29633;49.168;9.848;2023-01-10T14:10:28;97394.44;;;10.65;70.56
40992;BME280;29633;49.168;9.848;2023-01-10T14:15:29;97399.72;;;10.64;70.22
40992;BME280;29633;49.168;9.848;2023-01-10T14:18:04;97399.63;;;10.65;70.21
40992;BME280;29633;49.168;9.848;2023-01-10T14:20:32;97393.75;;;10.63;69.96
40992;BME280;29633;49.168;9.848;2023-01-10T14:23:04;97394.75;;;10.61;70.07
40992;BME280;29633;49.168;9.848;2023-01-10T14:25:33;97393.31;;;10.57;70.19
40992;BME280;29633;49.168;9.848;2023-01-10T14:27:59;97400.41;;;10.55;70.00
40992;BME280;29633;49.168;9.848;2023-01-10T14:30:31;97396.34;;;10.51;70.16
40992;BME280;29633;49.168;9.848;2023-01-10T14:33:00;97400.94;;;10.47;70.11
40992;BME280;29633;49.168;9.848;2023-01-10T14:35:37;97406.31;;;10.44;69.92
40992;BME280;29633;49.168;9.848;2023-01-10T14:38:04;97395.34;;;10.41;69.72
40992;BME280;29633;49.168;9.848;2023-01-10T14:42:57;97391.94;;;10.27;70.00
40992;BME280;29633;49.168;9.848;2023-01-10T14:45:48;97391.53;;;10.21;69.85
40992;BME280;29633;49.168;9.848;2023-01-10T14:48:21;97396.59;;;10.10;69.84
40992;BME280;29633;49.168;9.848;2023-01-10T14:50:47;97392.75;;;10.03;69.90
40992;BME280;29633;49.168;9.848;2023-01-10T14:53:29;97392.13;;;9.99;69.92
40992;BME280;29633;49.168;9.848;2023-01-10T14:55:55;97395.25;;;9.92;69.86
40992;BME280;29633;49.168;9.848;2023-01-10T14:58:20;97390.59;;;9.84;69.91
40992;BME280;29633;49.168;9.848;2023-01-10T15:00:47;97394.44;;;9.78;70.19
40992;BME280;29633;49.168;9.848;2023-01-10T15:03:18;97392.13;;;9.74;69.81
40992;BME280;29633;49.168;9.848;2023-01-10T15:05:47;97388.00;;;9.71;69.65